Time;durP1;ratioP1;P1;durP2;ratioP2;P2;SDS_P1;SDS_P2;PMS_P1;PMS_P2;Temp;Humidity;BMP_temperature;BMP_pressure;BME280_temperature;BME280_humidity;BME280_pressure;Samples;Min_cycle;Max_cycle;Signal;HPM_P1;HPM_P2
2023/04/18 00:00:24;;;;;;;18.90;13.60;;;;;;;9.11;82.14;101364.05;103710;280;38970;-73
2023/04/18 00:03:20;;;;;;;17.50;13.30;;;;;;;9.11;82.21;101358.99;103672;280;38574;-69
2023/04/18 00:05:55;;;;;;;19.20;13.60;;;;;;;9.14;82.31;101358.95;103556;280;39668;-72
2023/04/18 00:08:31;;;;;;;18.80;14.30;;;;;;;9.10;82.60;101357.27;103687;268;39711;-70
2023/04/18 00:11:08;;;;;;;18.60;13.40;;;;;;;9.06;82.48;101357.86;103703;280;39601;-75
2023/04/18 00:13:43;;;;;;;21.10;13.90;;;;;;;9.06;82.44;101358.20;103735;280;38447;-74
2023/04/18 00:16:17;;;;;;;19.70;14.10;;;;;;;9.09;82.73;101352.58;103654;279;39492;-70
2023/04/18 00:18:51;;;;;;;16.70;13.50;;;;;;;9.10;82.68;101351.86;103681;280;38459;-69
2023/04/18 00:21:25;;;;;;;17.50;12.90;;;;;;;9.10;82.66;101355.89;103729;280;38793;-72
2023/04/18 00:23:59;;;;;;;18.00;13.70;;;;;;;9.10;82.71;101352.39;103684;280;38610;-71
2023/04/18 00:26:33;;;;;;;18.00;13.80;;;;;;;9.09;82.71;101356.59;103587;280;175374;-72
2023/04/18 00:29:08;;;;;;;18.70;13.00;;;;;;;9.05;82.66;101355.10;103670;280;40193;-71
2023/04/18 00:31:41;;;;;;;16.80;12.80;;;;;;;9.02;82.73;101356.17;103724;280;38855;-74
2023/04/18 00:34:16;;;;;;;16.40;12.70;;;;;;;9.03;82.86;101354.25;103699;280;38507;-74
2023/04/18 00:36:50;;;;;;;16.50;13.00;;;;;;;9.01;82.99;101353.77;103638;280;38263;-74
2023/04/18 00:39:24;;;;;;;17.90;13.80;;;;;;;9.00;83.03;101358.31;103653;280;38298;-74
2023/04/18 00:41:58;;;;;;;18.90;14.10;;;;;;;8.97;83.26;101359.05;103679;280;38244;-70
2023/04/18 00:44:32;;;;;;;17.70;13.40;;;;;;;8.93;83.22;101355.45;103702;280;39005;-71
2023/04/18 00:47:06;;;;;;;16.70;13.10;;;;;;;8.92;83.25;101355.47;103651;280;38493;-70
2023/04/18 00:49:40;;;;;;;18.60;13.20;;;;;;;8.94;83.23;101355.25;103634;280;38261;-70
2023/04/18 00:52:14;;;;;;;19.20;14.50;;;;;;;8.98;83.35;101361.12;103713;280;38220;-73
2023/04/18 00:54:48;;;;;;;19.60;14.80;;;;;;;8.98;83.26;101359.73;103646;280;38608;-74
2023/04/18 00:57:22;;;;;;;16.90;13.90;;;;;;;8.98;83.41;101359.55;103704;280;39642;-73
2023/04/18 00:59:56;;;;;;;19.80;12.80;;;;;;;8.95;83.28;101358.89;103676;280;38658;-74
2023/04/18 01:02:30;;;;;;;19.10;13.60;;;;;;;8.96;83.35;101357.83;103581;281;39052;-71
2023/04/18 01:05:05;;;;;;;17.80;13.50;;;;;;;8.99;83.43;101357.45;103673;280;38487;-72
2023/04/18 01:07:40;;;;;;;17.10;13.60;;;;;;;8.99;83.52;101355.88;103700;280;38270;-74
2023/04/18 01:10:15;;;;;;;17.70;13.70;;;;;;;8.92;83.60;101352.67;103575;280;172706;-74
2023/04/18 01:12:49;;;;;;;15.90;12.60;;;;;;;8.88;83.71;101356.58;103726;280;38422;-73
2023/04/18 01:15:23;;;;;;;18.40;13.90;;;;;;;8.84;83.92;101357.15;103724;280;38241;-74
2023/04/18 01:17:57;;;;;;;16.70;13.90;;;;;;;8.82;83.95;101353.70;103675;280;38288;-71
2023/04/18 01:20:34;;;;;;;16.50;13.50;;;;;;;8.82;84.09;101353.88;103704;280;39729;-74
2023/04/18 01:23:09;;;;;;;19.90;13.10;;;;;;;8.82;84.13;101358.05;103658;280;38483;-73
2023/04/18 01:25:43;;;;;;;17.10;13.10;;;;;;;8.82;84.11;101354.40;103060;280;908054;-72
2023/04/18 01:28:18;;;;;;;16.90;13.50;;;;;;;8.82;84.39;101355.80;103522;280;38352;-74
2023/04/18 01:30:53;;;;;;;20.00;14.10;;;;;;;8.81;84.37;101359.98;103709;280;38936;-73
2023/04/18 01:33:27;;;;;;;18.70;14.10;;;;;;;8.77;84.35;101354.28;103670;280;38222;-73
2023/04/18 01:36:01;;;;;;;19.20;13.10;;;;;;;8.77;84.34;101354.48;103092;280;642788;-72
2023/04/18 01:38:35;;;;;;;16.60;12.80;;;;;;;8.75;84.36;101349.64;103656;280;40066;-72
2023/04/18 01:41:09;;;;;;;20.00;13.90;;;;;;;8.73;84.67;101350.01;103728;280;39468;-74
2023/04/18 01:43:42;;;;;;;17.60;14.00;;;;;;;8.74;84.61;101349.29;103660;280;38400;-72
2023/04/18 01:46:16;;;;;;;18.20;14.10;;;;;;;8.75;84.64;101347.02;103726;280;40185;-72
2023/04/18 01:48:50;;;;;;;18.10;14.30;;;;;;;8.76;84.66;101347.36;103717;278;38972;-72
2023/04/18 01:51:25;;;;;;;19.10;14.00;;;;;;;8.77;84.66;101352.56;103715;280;39585;-72
2023/04/18 01:53:59;;;;;;;17.70;13.20;;;;;;;8.79;84.76;101351.84;103692;280;40266;-72
2023/04/18 01:56:33;;;;;;;16.80;13.10;;;;;;;8.79;84.68;101353.75;103719;280;38263;-72
2023/04/18 01:59:07;;;;;;;17.50;13.70;;;;;;;8.77;84.83;101351.00;103644;280;38552;-70
2023/04/18 02:01:41;;;;;;;19.60;15.20;;;;;;;8.74;84.78;101350.67;103748;280;39723;-72
2023/04/18 02:04:15;;;;;;;19.30;13.70;;;;;;;8.78;84.93;101354.98;103669;280;38697;-71
2023/04/18 02:06:49;;;;;;;18.20;14.00;;;;;;;8.80;84.89;101350.77;103694;280;38608;-71
2023/04/18 02:09:23;;;;;;;19.30;13.90;;;;;;;8.82;84.90;101348.49;103682;280;39350;-69
2023/04/18 02:11:58;;;;;;;18.50;12.90;;;;;;;8.81;84.70;101345.73;103690;280;38857;-71
2023/04/18 02:14:36;;;;;;;15.70;13.40;;;;;;;8.84;85.02;101346.38;103679;280;38512;-70
2023/04/18 02:17:10;;;;;;;17.40;14.00;;;;;;;8.86;84.83;101348.25;103669;280;38224;-71
2023/04/18 02:19:44;;;;;;;17.50;13.80;;;;;;;8.86;84.91;101344.44;103684;280;38390;-71
2023/04/18 02:22:18;;;;;;;19.00;13.50;;;;;;;8.84;84.91;101340.09;103646;280;39957;-73
2023/04/18 02:24:52;;;;;;;17.80;13.30;;;;;;;8.86;84.87;101339.55;103691;280;38522;-74
2023/04/18 02:27:26;;;;;;;17.10;13.10;;;;;;;8.87;84.90;101334.50;103686;280;39704;-73
2023/04/18 02:30:00;;;;;;;16.20;13.30;;;;;;;8.90;85.01;101332.54;103664;280;38401;-74
2023/04/18 02:32:35;;;;;;;19.10;14.10;;;;;;;8.93;85.00;101335.27;103702;280;39649;-73
2023/04/18 02:35:12;;;;;;;17.40;14.40;;;;;;;8.91;84.88;101338.25;103697;280;38938;-74
2023/04/18 02:37:46;;;;;;;17.60;13.40;;;;;;;8.90;85.13;101341.59;103697;280;38350;-74
2023/04/18 02:40:21;;;;;;;19.40;14.00;;;;;;;8.85;85.08;101342.17;103701;280;38387;-71
2023/04/18 02:42:57;;;;;;;17.20;13.60;;;;;;;8.82;85.03;101343.98;103714;280;38239;-74
2023/04/18 02:45:31;;;;;;;18.70;14.70;;;;;;;8.82;85.30;101338.58;103710;280;38279;-70
2023/04/18 02:48:06;;;;;;;17.70;14.80;;;;;;;8.83;85.41;101337.70;103668;280;39690;-71
2023/04/18 02:50:40;;;;;;;19.60;15.80;;;;;;;8.82;85.37;101339.45;103569;282;38251;-73
2023/04/18 02:53:15;;;;;;;17.40;14.10;;;;;;;8.79;85.53;101338.79;103714;280;39891;-70
2023/04/18 02:55:49;;;;;;;19.50;15.00;;;;;;;8.76;85.62;101340.22;103679;280;38239;-73
2023/04/18 02:58:22;;;;;;;18.10;13.70;;;;;;;8.76;85.49;101341.25;103525;270;39926;-73
2023/04/18 03:00:58;;;;;;;18.40;15.20;;;;;;;8.79;85.70;101342.27;103718;280;38789;-70
2023/04/18 03:03:32;;;;;;;18.60;14.90;;;;;;;8.83;85.86;101344.83;103691;280;38801;-70
2023/04/18 03:06:07;;;;;;;19.40;14.30;;;;;;;8.79;85.83;101344.36;103715;280;38234;-71
2023/04/18 03:08:41;;;;;;;22.60;15.40;;;;;;;8.78;86.01;101345.23;103685;280;38384;-71
2023/04/18 03:11:15;;;;;;;18.90;14.40;;;;;;;8.76;85.96;101344.22;103635;280;39025;-71
2023/04/18 03:13:49;;;;;;;21.80;15.60;;;;;;;8.75;86.37;101347.89;103687;280;38462;-71
2023/04/18 03:16:23;;;;;;;19.40;14.20;;;;;;;8.72;86.32;101347.07;103728;280;38390;-69
2023/04/18 03:18:57;;;;;;;20.10;14.80;;;;;;;8.72;86.33;101347.59;103665;280;38820;-70
2023/04/18 03:21:31;;;;;;;19.40;14.80;;;;;;;8.76;86.36;101349.79;103657;280;39624;-71
2023/04/18 03:24:06;;;;;;;21.40;16.00;;;;;;;8.79;86.25;101347.83;103681;269;39841;-72
2023/04/18 03:26:40;;;;;;;20.80;15.20;;;;;;;8.83;86.36;101347.27;103669;280;38860;-70
2023/04/18 03:29:16;;;;;;;20.70;15.80;;;;;;;8.81;86.09;101347.80;103698;280;38614;-70
2023/04/18 03:31:51;;;;;;;19.00;14.70;;;;;;;8.82;86.08;101347.27;103716;280;39609;-73
2023/04/18 03:34:25;;;;;;;17.70;15.00;;;;;;;8.84;86.02;101351.94;103691;280;38243;-73
2023/04/18 03:37:00;;;;;;;17.50;14.50;;;;;;;8.85;86.10;101354.52;103704;280;39493;-72
2023/04/18 03:39:34;;;;;;;17.60;14.70;;;;;;;8.87;85.92;101355.39;103720;280;38724;-74
2023/04/18 03:42:07;;;;;;;19.30;15.00;;;;;;;8.88;85.90;101352.06;103708;280;39460;-74
2023/04/18 03:44:41;;;;;;;18.60;14.80;;;;;;;8.87;85.86;101353.98;103681;280;38742;-72
2023/04/18 03:47:15;;;;;;;21.00;15.40;;;;;;;8.86;85.77;101355.38;103703;280;38460;-73
2023/04/18 03:49:49;;;;;;;17.50;13.90;;;;;;;8.88;85.85;101354.67;103673;280;38521;-73
2023/04/18 03:52:23;;;;;;;19.00;14.90;;;;;;;8.89;85.74;101355.00;103713;280;38915;-70
2023/04/18 03:54:58;;;;;;;19.20;14.70;;;;;;;8.89;85.76;101361.08;103693;280;38632;-71
2023/04/18 03:57:32;;;;;;;20.10;15.00;;;;;;;8.89;85.63;101362.48;103693;280;38520;-69
2023/04/18 04:13:46;;;;;;;21.10;15.40;;;;;;;8.85;85.82;101363.59;103836;278;39453;-74
2023/04/18 04:16:20;;;;;;;20.60;16.40;;;;;;;8.87;85.85;101365.98;103767;278;38370;-72
2023/04/18 04:18:54;;;;;;;22.80;15.80;;;;;;;8.84;85.78;101365.33;103799;278;38260;-72
2023/04/18 04:21:30;;;;;;;19.90;15.70;;;;;;;8.85;85.73;101367.41;103898;277;38558;-76
2023/04/18 04:24:05;;;;;;;19.30;15.20;;;;;;;8.84;85.68;101364.81;103990;277;39415;-75
2023/04/18 04:26:41;;;;;;;21.20;15.10;;;;;;;8.85;85.72;101368.79;104030;277;38236;-70
2023/04/18 04:32:35;;;;;;;18.50;15.30;;;;;;;8.94;85.78;101368.31;104170;277;38876;-73
2023/04/18 04:35:10;;;;;;;21.00;15.20;;;;;;;8.92;85.41;101369.04;104033;277;38592;-73
2023/04/18 04:41:15;;;;;;;21.60;15.30;;;;;;;8.90;85.49;101370.98;104018;277;38844;-73
2023/04/18 04:43:50;;;;;;;20.10;15.30;;;;;;;8.89;85.29;101376.21;103772;278;39594;-74
2023/04/18 04:46:28;;;;;;;19.70;15.50;;;;;;;8.92;85.38;101375.66;103774;267;38965;31
2023/04/18 04:49:02;;;;;;;20.70;14.80;;;;;;;8.96;85.41;101378.02;103630;279;38716;-71
2023/04/18 04:51:37;;;;;;;20.90;15.60;;;;;;;8.99;85.30;101377.45;103684;279;38503;-71
2023/04/18 04:54:11;;;;;;;19.20;14.80;;;;;;;9.00;85.14;101381.10;103735;271;38278;-71
2023/04/18 04:56:48;;;;;;;17.30;13.90;;;;;;;9.02;85.14;101380.71;103684;279;40164;-73
2023/04/18 05:02:47;;;;;;;19.80;15.20;;;;;;;9.04;84.89;101381.20;103897;276;38307;-70
2023/04/18 05:08:44;;;;;;;20.50;15.10;;;;;;;9.08;84.83;101387.96;105486;276;38487;-71
2023/04/18 05:11:19;;;;;;;19.30;14.50;;;;;;;9.11;84.61;101389.64;105670;276;38634;-73
2023/04/18 05:13:53;;;;;;;19.10;14.60;;;;;;;9.16;84.69;101393.21;105695;276;39216;-71
2023/04/18 05:16:27;;;;;;;22.60;15.10;;;;;;;9.21;84.41;101391.04;105710;276;39387;-71
2023/04/18 05:19:02;;;;;;;24.30;15.60;;;;;;;9.21;84.16;101393.48;106160;276;38405;-73
2023/04/18 05:21:36;;;;;;;19.20;14.50;;;;;;;9.26;84.20;101392.35;106115;276;40089;-74
2023/04/18 05:24:10;;;;;;;19.90;14.20;;;;;;;9.33;84.05;101390.86;106186;276;39974;-72
2023/04/18 05:26:44;;;;;;;17.90;14.20;;;;;;;9.39;83.87;101394.04;105696;276;38251;-72
2023/04/18 05:29:18;;;;;;;20.00;14.10;;;;;;;9.45;83.83;101395.87;106163;276;39677;-72
2023/04/18 05:31:52;;;;;;;20.20;14.50;;;;;;;9.55;83.64;101397.09;106156;276;39003;-72
2023/04/18 05:34:25;;;;;;;17.60;14.50;;;;;;;9.63;83.20;101389.98;106183;276;39700;-73
2023/04/18 05:36:59;;;;;;;18.00;14.70;;;;;;;9.66;82.95;101392.37;106164;276;39569;-73
2023/04/18 05:39:34;;;;;;;20.90;15.00;;;;;;;9.74;82.93;101387.87;105701;276;39483;-74
2023/04/18 05:42:07;;;;;;;22.70;15.90;;;;;;;9.87;82.98;101386.05;106166;276;38280;-74
2023/04/18 05:44:41;;;;;;;18.40;14.30;;;;;;;10.04;83.17;101386.42;105694;276;39603;-72
2023/04/18 05:47:16;;;;;;;17.60;14.00;;;;;;;10.23;82.58;101387.63;106038;276;172080;-72
2023/04/18 05:49:50;;;;;;;17.50;13.80;;;;;;;10.43;82.39;101384.81;106173;276;38607;-73
2023/04/18 05:52:25;;;;;;;20.20;15.20;;;;;;;10.55;81.27;101383.50;105663;274;37914;-74
2023/04/18 05:57:34;;;;;;;20.10;15.10;;;;;;;10.80;81.03;101385.03;105874;277;38437;-72
2023/04/18 06:00:11;;;;;;;17.70;13.70;;;;;;;10.93;80.25;101382.11;105796;278;171957;-73
2023/04/18 06:02:45;;;;;;;22.30;15.50;;;;;;;11.02;79.71;101379.47;105453;278;38409;-74
2023/04/18 06:05:20;;;;;;;18.50;14.80;;;;;;;11.11;79.26;101380.97;105481;278;38855;-72
2023/04/18 06:07:56;;;;;;;20.40;14.50;;;;;;;11.24;78.90;101383.65;105480;278;38273;-72
2023/04/18 06:10:30;;;;;;;19.40;16.10;;;;;;;11.43;79.10;101382.48;105475;278;38461;-72
2023/04/18 06:13:03;;;;;;;22.20;15.10;;;;;;;11.62;78.49;101382.49;105451;278;40110;-72
2023/04/18 06:15:37;;;;;;;17.50;14.30;;;;;;;11.73;77.32;101387.63;105462;278;38572;-73
2023/04/18 06:18:11;;;;;;;20.70;15.00;;;;;;;11.70;76.49;101384.57;105339;278;174552;-73
2023/04/18 06:20:45;;;;;;;18.70;14.50;;;;;;;11.71;76.32;101386.11;105465;278;38339;-73
2023/04/18 06:23:19;;;;;;;18.90;15.30;;;;;;;11.69;75.17;101383.90;105907;278;38387;-73
2023/04/18 06:25:53;;;;;;;21.20;14.30;;;;;;;11.62;75.27;101387.40;105433;278;38237;-74
2023/04/18 06:28:27;;;;;;;18.20;15.30;;;;;;;11.60;75.08;101386.04;105279;278;38276;-71
2023/04/18 06:31:01;;;;;;;19.10;14.30;;;;;;;11.63;75.54;101388.95;105456;278;38227;-71
2023/04/18 06:33:37;;;;;;;19.10;14.10;;;;;;;11.67;75.36;101388.83;105260;278;38575;-72
2023/04/18 06:39:38;;;;;;;21.10;15.60;;;;;;;11.67;75.05;101389.02;105373;276;38800;-71
2023/04/18 06:42:12;;;;;;;21.90;16.00;;;;;;;11.74;75.10;101392.50;105662;277;39855;-74
2023/04/18 06:44:49;;;;;;;20.90;15.80;;;;;;;11.76;74.90;101391.75;105627;277;39393;-71
2023/04/18 06:47:23;;;;;;;18.00;14.80;;;;;;;11.71;74.66;101395.55;106022;277;40975;-72
2023/04/18 06:49:57;;;;;;;20.70;15.40;;;;;;;11.66;74.06;101397.77;106031;277;39454;-71
2023/04/18 06:52:31;;;;;;;19.90;15.40;;;;;;;11.60;74.28;101396.00;105627;277;39947;-71
2023/04/18 06:55:06;;;;;;;19.50;15.20;;;;;;;11.60;74.55;101395.84;105656;277;38250;-71
2023/04/18 06:57:40;;;;;;;19.90;15.40;;;;;;;11.63;74.76;101392.44;106048;277;39412;-71
2023/04/18 07:00:16;;;;;;;18.80;15.30;;;;;;;11.68;74.75;101394.95;105658;277;38707;-73
2023/04/18 07:02:50;;;;;;;18.70;14.70;;;;;;;11.68;74.66;101394.25;105361;277;38730;-73
2023/04/18 07:05:24;;;;;;;24.40;15.70;;;;;;;11.66;74.59;101395.52;105635;277;38648;-74
2023/04/18 07:07:59;;;;;;;20.80;14.50;;;;;;;11.65;74.38;101396.07;105682;277;38258;-74
2023/04/18 07:10:33;;;;;;;20.40;15.00;;;;;;;11.64;74.12;101398.02;105632;277;38370;-71
2023/04/18 07:13:08;;;;;;;19.80;14.80;;;;;;;11.66;74.42;101396.90;105374;277;39862;-72
2023/04/18 07:15:42;;;;;;;20.40;15.80;;;;;;;11.71;74.34;101399.73;105642;277;39411;-72
2023/04/18 07:18:16;;;;;;;18.80;14.90;;;;;;;11.79;74.30;101400.23;105356;279;38241;-71
2023/04/18 07:20:51;;;;;;;19.50;15.30;;;;;;;11.88;74.25;101398.45;105667;277;38267;-72
2023/04/18 07:23:25;;;;;;;23.00;15.20;;;;;;;11.98;73.87;101400.98;106032;277;38730;-73
2023/04/18 07:26:01;;;;;;;18.10;14.40;;;;;;;12.12;74.19;101398.66;105648;277;39289;-72
2023/04/18 07:28:35;;;;;;;18.60;14.10;;;;;;;12.26;73.21;101399.48;105616;277;38837;-72
2023/04/18 07:31:10;;;;;;;20.30;14.60;;;;;;;12.31;72.84;101396.36;106030;285;38568;-72
2023/04/18 07:33:44;;;;;;;21.20;15.60;;;;;;;12.38;72.23;101400.55;105611;277;39892;-71
2023/04/18 07:40:17;;;;;;;17.80;14.90;;;;;;;12.45;72.37;101399.10;105633;276;38232;-71
2023/04/18 07:42:54;;;;;;;19.50;14.90;;;;;;;12.55;72.13;101399.70;106121;274;38491;-71
2023/04/18 07:45:28;;;;;;;20.00;15.20;;;;;;;12.63;71.67;101401.90;105651;277;39532;-73
2023/04/18 07:48:03;;;;;;;20.20;14.80;;;;;;;12.77;71.90;101401.48;105590;277;38775;-73
2023/04/18 07:50:37;;;;;;;19.20;14.30;;;;;;;12.97;71.45;101402.45;105577;277;39427;-73
2023/04/18 07:53:11;;;;;;;19.50;14.60;;;;;;;13.11;71.15;101401.98;105610;277;38532;-74
2023/04/18 07:59:02;;;;;;;18.60;14.40;;;;;;;13.57;69.90;101401.20;105509;276;38789;-72
2023/04/18 08:01:37;;;;;;;17.00;14.40;;;;;;;13.83;69.41;101403.45;105658;276;38294;-72
2023/04/18 08:04:13;;;;;;;16.10;13.80;;;;;;;14.13;68.78;101404.67;105682;277;38382;-71
2023/04/18 08:06:47;;;;;;;18.70;14.40;;;;;;;14.43;67.89;101405.52;106139;277;38811;-71
2023/04/18 08:09:21;;;;;;;17.90;14.20;;;;;;;14.80;67.08;101407.95;105680;276;38403;-71
2023/04/18 08:11:55;;;;;;;16.60;13.50;;;;;;;15.08;64.72;101400.20;105695;277;38344;-72
2023/04/18 08:18:13;;;;;;;18.90;13.60;;;;;;;15.76;65.10;101396.51;105636;277;38375;-73
2023/04/18 08:20:47;;;;;;;16.80;13.30;;;;;;;16.13;63.43;101394.90;105651;277;38207;-73
2023/04/18 08:23:21;;;;;;;17.90;14.10;;;;;;;16.32;62.40;101392.45;106105;277;40141;-73
2023/04/18 08:26:02;;;;;;;16.60;12.80;;;;;;;16.55;61.45;101396.50;105652;277;38461;-74
2023/04/18 08:28:36;;;;;;;16.60;12.90;;;;;;;16.58;60.26;101398.95;105380;279;40293;-74
2023/04/18 08:31:14;;;;;;;16.70;13.20;;;;;;;16.73;60.07;101399.88;105396;279;39402;-74
2023/04/18 08:33:48;;;;;;;14.70;12.70;;;;;;;16.98;60.18;101397.65;105359;279;38483;-74
2023/04/18 08:36:23;;;;;;;15.80;12.90;;;;;;;17.52;59.29;101395.34;105801;279;39129;-71
2023/04/18 08:38:58;;;;;;;15.80;12.20;;;;;;;18.26;58.60;101394.80;105401;279;38718;-73
2023/04/18 08:41:32;;;;;;;14.10;12.10;;;;;;;19.08;55.87;101392.94;105383;280;38223;-73
2023/04/18 08:44:08;;;;;;;15.60;13.00;;;;;;;19.74;53.81;101391.56;105422;279;38468;-72
2023/04/18 08:46:42;;;;;;;15.30;12.10;;;;;;;20.41;53.65;101384.63;105414;279;39573;-72
2023/04/18 08:49:17;;;;;;;13.90;12.10;;;;;;;21.17;50.50;101390.37;105794;279;39472;-73
2023/04/18 08:51:59;;;;;;;14.70;11.80;;;;;;;21.79;48.66;101381.92;105376;279;38342;-73
2023/04/18 08:54:36;;;;;;;13.60;11.70;;;;;;;22.47;47.25;101381.61;105229;278;39896;-74
2023/04/18 08:57:11;;;;;;;13.90;11.10;;;;;;;22.98;45.42;101372.73;105323;279;38540;-74
2023/04/18 08:59:45;;;;;;;12.10;11.00;;;;;;;23.46;44.37;101371.39;105481;277;40751;-74
2023/04/18 09:02:20;;;;;;;13.80;11.20;;;;;;;23.87;42.64;101373.10;105864;276;39248;-74
2023/04/18 09:04:54;;;;;;;12.40;11.30;;;;;;;24.29;42.74;101366.05;105580;266;38969;-74
2023/04/18 09:07:32;;;;;;;14.10;11.60;;;;;;;24.49;41.77;101364.52;105957;277;38246;-74
2023/04/18 09:10:07;;;;;;;11.80;10.70;;;;;;;24.26;40.70;101361.88;105562;277;38620;-74
2023/04/18 09:16:21;;;;;;;12.70;11.40;;;;;;;23.73;39.52;101360.83;105474;277;38332;-74
2023/04/18 09:25:47;;;;;;;13.50;10.70;;;;;;;22.37;41.27;101361.38;105470;277;38578;-73
2023/04/18 09:28:28;;;;;;;15.50;11.30;;;;;;;22.06;42.11;101360.52;105564;277;38248;-74
2023/04/18 09:31:10;;;;;;;12.20;10.10;;;;;;;22.03;42.38;101359.29;105434;277;173887;-73
2023/04/18 09:33:55;;;;;;;13.10;10.80;;;;;;;22.19;41.63;101356.45;105491;277;38326;-72
2023/04/18 09:36:31;;;;;;;12.30;10.50;;;;;;;22.18;42.24;101352.25;105129;278;635931;-72
2023/04/18 09:39:05;;;;;;;13.70;11.10;;;;;;;21.96;42.10;101352.49;105316;278;173862;-73
2023/04/18 09:41:39;;;;;;;12.90;11.50;;;;;;;21.67;41.64;101351.89;105412;278;38493;-73
2023/04/18 09:44:14;;;;;;;14.80;11.90;;;;;;;21.31;42.28;101355.77;105838;278;38599;-73
2023/04/18 09:46:48;;;;;;;13.80;10.90;;;;;;;20.93;42.46;101359.84;105429;279;39541;-74
2023/04/18 09:49:22;;;;;;;16.10;11.70;;;;;;;20.65;43.61;101360.24;105869;278;38460;-73
2023/04/18 09:51:57;;;;;;;13.50;10.80;;;;;;;20.46;43.32;101361.83;105459;278;38271;-73
2023/04/18 09:54:31;;;;;;;17.80;11.20;;;;;;;20.14;43.61;101358.86;105827;279;38843;-73
2023/04/18 09:57:05;;;;;;;12.80;11.00;;;;;;;19.81;43.65;101362.46;105793;278;40416;-73
2023/04/18 09:59:46;;;;;;;14.60;11.30;;;;;;;19.48;43.88;101357.87;105412;278;38424;-73
2023/04/18 10:02:24;;;;;;;18.70;11.90;;;;;;;19.18;45.02;101355.80;105442;278;38862;-73
2023/04/18 10:04:57;;;;;;;17.80;12.70;;;;;;;19.05;45.70;101356.52;105427;279;38590;-73
2023/04/18 10:07:31;;;;;;;16.20;12.50;;;;;;;18.97;46.22;101357.89;105406;279;38237;-73
2023/04/18 10:10:06;;;;;;;13.60;12.00;;;;;;;18.95;46.81;101357.61;105850;278;38432;-72
2023/04/18 10:12:40;;;;;;;15.70;11.50;;;;;;;18.93;46.79;101352.63;105875;278;38669;-72
2023/04/18 10:15:14;;;;;;;17.50;11.90;;;;;;;18.87;46.78;101351.55;105449;279;39596;-72
2023/04/18 10:17:53;;;;;;;15.80;11.70;;;;;;;18.76;46.70;101349.37;105822;279;38279;-73
2023/04/18 10:20:28;;;;;;;15.30;11.40;;;;;;;18.61;46.87;101354.58;105838;278;39308;-72
2023/04/18 10:23:18;;;;;;;13.50;11.10;;;;;;;18.63;47.08;101353.59;105827;279;39463;-72
2023/04/18 10:25:53;;;;;;;16.90;11.30;;;;;;;18.63;46.51;101348.30;105409;279;39290;-72
2023/04/18 10:28:28;;;;;;;14.30;12.10;;;;;;;18.44;46.26;101348.27;105436;279;39606;-72
2023/04/18 10:31:06;;;;;;;13.60;11.10;;;;;;;18.33;47.17;101344.09;105292;278;39515;-73
2023/04/18 10:37:07;;;;;;;13.30;10.60;;;;;;;18.74;48.47;101336.73;105325;278;39120;-72
2023/04/18 10:39:59;;;;;;;17.70;11.60;;;;;;;19.05;48.18;101335.09;105904;278;39595;-73
2023/04/18 10:43:01;;;;;;;23.90;12.30;;;;;;;19.02;47.24;101336.33;105433;278;39391;-73
2023/04/18 10:45:35;;;;;;;18.90;11.50;;;;;;;18.88;46.63;101335.93;105392;278;38545;-73
2023/04/18 10:48:34;;;;;;;15.10;10.80;;;;;;;18.63;46.73;101332.21;105469;278;38475;-72
2023/04/18 10:54:55;;;;;;;18.00;12.20;;;;;;;18.45;47.70;101330.05;105124;278;38272;-73
2023/04/18 10:57:38;;;;;;;15.40;10.90;;;;;;;18.56;47.94;101324.27;105879;278;38499;-73
2023/04/18 11:00:15;;;;;;;19.20;11.90;;;;;;;18.71;48.17;101321.48;105483;278;38501;-73
2023/04/18 11:02:59;;;;;;;13.00;10.40;;;;;;;18.91;48.09;101323.02;105897;278;38655;-73
2023/04/18 11:05:33;;;;;;;18.40;11.50;;;;;;;18.89;47.26;101326.66;105338;279;39448;-73
2023/04/18 11:08:21;;;;;;;16.30;11.40;;;;;;;18.81;47.11;101324.85;105366;279;38214;-73
2023/04/18 11:11:05;;;;;;;18.10;12.10;;;;;;;18.81;46.97;101323.62;105331;279;38297;-72
2023/04/18 11:13:40;;;;;;;15.70;11.00;;;;;;;18.80;46.76;101318.86;105530;277;40781;-74
2023/04/18 11:16:29;;;;;;;15.20;11.20;;;;;;;18.74;46.97;101319.58;105519;277;38219;-72
2023/04/18 11:19:04;;;;;;;13.20;11.10;;;;;;;18.64;46.82;101320.33;105254;279;41166;-72
2023/04/18 11:21:38;;;;;;;12.00;10.70;;;;;;;18.47;46.95;101317.33;105913;277;38684;-72
2023/04/18 11:24:27;;;;;;;11.80;10.00;;;;;;;18.44;47.73;101317.17;105327;279;38536;-73
2023/04/18 11:27:01;;;;;;;12.20;10.90;;;;;;;18.47;47.78;101312.23;105294;278;39542;-73
2023/04/18 11:29:35;;;;;;;12.70;10.20;;;;;;;18.42;46.44;101313.94;105493;266;38228;-72
2023/04/18 11:32:10;;;;;;;13.10;10.10;;;;;;;18.24;47.24;101313.49;105260;278;39425;-71
2023/04/18 11:34:44;;;;;;;15.30;11.20;;;;;;;18.18;47.49;101308.73;105492;277;39491;-73
2023/04/18 11:37:22;;;;;;;17.30;10.10;;;;;;;18.04;47.52;101312.83;105505;278;38403;-73
2023/04/18 11:39:57;;;;;;;15.00;11.00;;;;;;;17.97;47.54;101310.92;105457;277;39107;-73
2023/04/18 11:42:33;;;;;;;12.40;9.80;;;;;;;17.97;47.61;101310.77;105927;278;38407;-73
2023/04/18 11:45:11;;;;;;;11.40;9.60;;;;;;;17.97;47.31;101308.27;105468;278;39376;-73
2023/04/18 11:47:46;;;;;;;12.10;9.30;;;;;;;17.99;48.07;101303.05;105940;278;38682;-73
2023/04/18 11:50:20;;;;;;;14.10;10.00;;;;;;;18.13;48.37;101307.22;105489;278;39408;-73
2023/04/18 11:52:55;;;;;;;18.30;10.10;;;;;;;18.21;47.73;101304.16;105525;278;38259;-72
2023/04/18 11:55:29;;;;;;;12.30;10.50;;;;;;;18.19;47.35;101306.38;105895;278;38503;-72
2023/04/18 12:00:52;;;;;;;12.30;9.40;;;;;;;18.09;47.47;101298.45;105837;278;38993;-73
2023/04/18 12:03:27;;;;;;;12.80;10.10;;;;;;;18.16;47.49;101293.13;105428;278;38418;31
2023/04/18 12:06:04;;;;;;;17.00;10.00;;;;;;;18.23;47.58;101287.62;105725;279;38728;-73
2023/04/18 12:08:39;;;;;;;13.60;9.20;;;;;;;18.25;47.13;101287.66;105286;280;38517;-72
2023/04/18 12:11:13;;;;;;;11.50;9.10;;;;;;;18.18;46.96;101285.77;105290;280;39796;-72
2023/04/18 12:13:47;;;;;;;10.40;8.80;;;;;;;18.07;47.13;101284.09;105274;280;40418;-73
2023/04/18 12:16:21;;;;;;;11.70;9.40;;;;;;;17.97;47.51;101284.77;105304;280;39690;-72
2023/04/18 12:22:43;;;;;;;11.20;9.00;;;;;;;17.71;47.21;101279.98;105323;277;38348;-72
2023/04/18 12:25:22;;;;;;;17.20;10.10;;;;;;;17.69;46.92;101280.99;105925;273;39404;-72
2023/04/18 12:28:02;;;;;;;9.70;8.10;;;;;;;17.61;47.23;101280.00;105414;278;38261;-72
2023/04/18 12:30:37;;;;;;;12.60;8.50;;;;;;;17.52;46.96;101281.49;105944;277;39518;-72
2023/04/18 12:33:13;;;;;;;14.70;9.40;;;;;;;17.48;47.50;101276.27;105549;277;38266;-73
2023/04/18 12:35:47;;;;;;;11.10;8.60;;;;;;;17.44;47.50;101277.35;105529;277;38917;-73
2023/04/18 12:38:22;;;;;;;14.10;8.90;;;;;;;17.39;47.62;101273.55;105554;277;38725;-71
2023/04/18 12:40:56;;;;;;;10.20;8.00;;;;;;;17.37;47.63;101272.08;105534;277;38241;-71
2023/04/18 12:43:30;;;;;;;10.20;8.30;;;;;;;17.35;48.02;101267.76;105551;277;38476;-72
2023/04/18 12:46:04;;;;;;;14.10;8.60;;;;;;;17.41;48.50;101266.74;105285;277;38211;-72
2023/04/18 12:48:38;;;;;;;10.50;7.50;;;;;;;17.47;47.95;101266.95;105166;277;174183;-72
2023/04/18 12:51:12;;;;;;;8.80;7.30;;;;;;;17.42;47.77;101264.58;105546;277;39658;-72
2023/04/18 12:53:47;;;;;;;9.50;7.50;;;;;;;17.42;48.19;101262.30;105554;277;38395;-73
2023/04/18 12:56:21;;;;;;;14.20;8.50;;;;;;;17.47;48.38;101259.91;105239;277;41239;-73
2023/04/18 12:58:55;;;;;;;10.40;7.90;;;;;;;17.49;47.88;101253.98;105418;277;174107;-73